createdAt,value
2024-04-09T00:00:51.010Z,19.03
2024-04-09T00:03:20.958Z,22.50
2024-04-09T00:05:55.731Z,18.63
2024-04-09T00:08:22.943Z,21.57
2024-04-09T00:10:54.155Z,21.67
2024-04-09T00:13:22.019Z,14.23
2024-04-09T00:15:51.759Z,24.43
2024-04-09T00:18:21.655Z,25.90
2024-04-09T00:20:54.790Z,20.47
2024-04-09T00:23:24.139Z,19.60
2024-04-09T00:25:54.355Z,16.93
2024-04-09T00:28:21.386Z,17.80
2024-04-09T00:30:51.811Z,23.10
2024-04-09T00:33:22.875Z,20.97
2024-04-09T00:35:53.280Z,15.50
2024-04-09T00:38:20.962Z,22.77
2024-04-09T00:40:50.751Z,23.57
2024-04-09T00:43:18.746Z,16.20
2024-04-09T00:45:50.937Z,19.53
2024-04-09T00:48:21.015Z,19.27
2024-04-09T00:50:52.293Z,17.50
2024-04-09T00:53:20.363Z,20.17
2024-04-09T00:55:51.597Z,18.70
2024-04-09T00:58:19.435Z,20.07
2024-04-09T01:00:49.552Z,25.50
2024-04-09T01:03:17.085Z,19.80
2024-04-09T01:05:49.662Z,23.57
2024-04-09T01:08:16.719Z,17.83
2024-04-09T01:10:46.536Z,18.10
2024-04-09T01:13:13.642Z,18.83
2024-04-09T01:15:43.334Z,19.70
2024-04-09T01:18:10.583Z,15.10
2024-04-09T01:20:40.439Z,21.10
2024-04-09T01:23:10.150Z,26.47
2024-04-09T01:25:40.538Z,18.90
2024-04-09T01:28:08.648Z,20.10
2024-04-09T01:30:39.200Z,17.33
2024-04-09T01:33:06.565Z,18.30
2024-04-09T01:35:36.558Z,15.47
2024-04-09T01:38:05.124Z,18.23
2024-04-09T01:40:37.413Z,20.93
2024-04-09T01:43:04.722Z,15.03
2024-04-09T01:45:34.634Z,20.60
2024-04-09T01:48:01.902Z,15.63
2024-04-09T01:50:32.605Z,21.63
2024-04-09T01:52:59.615Z,15.40
2024-04-09T01:55:29.222Z,22.23
2024-04-09T01:57:59.385Z,26.53
2024-04-09T02:00:29.793Z,20.07
2024-04-09T02:02:57.107Z,15.00
2024-04-09T02:05:28.193Z,16.00
2024-04-09T02:07:55.358Z,22.77
2024-04-09T02:10:25.044Z,20.23
2024-04-09T02:12:52.176Z,21.63
2024-04-09T02:15:24.778Z,22.60
2024-04-09T02:17:52.506Z,21.07
2024-04-09T02:20:22.176Z,18.47
2024-04-09T02:22:49.388Z,18.90
2024-04-09T02:25:20.003Z,19.87
2024-04-09T02:27:47.102Z,18.73
2024-04-09T02:30:16.984Z,18.40
2024-04-09T02:32:46.856Z,17.73
2024-04-09T02:35:17.099Z,21.13
2024-04-09T02:37:44.119Z,20.90
2024-04-09T02:40:17.189Z,21.67
2024-04-09T02:42:45.597Z,20.53
2024-04-09T02:45:15.576Z,14.73
2024-04-09T02:47:42.818Z,15.80
2024-04-09T02:50:17.117Z,18.03
2024-04-09T02:52:44.229Z,19.50
2024-04-09T02:55:13.869Z,15.70
2024-04-09T02:57:41.083Z,19.00
2024-04-09T03:00:20.285Z,16.17
2024-04-09T03:02:51.882Z,15.13
2024-04-09T03:05:31.384Z,16.53
2024-04-09T03:07:58.664Z,17.60
2024-04-09T03:10:29.421Z,17.53
2024-04-09T03:12:56.430Z,15.27
2024-04-09T03:15:26.314Z,16.83
2024-04-09T03:17:53.436Z,16.43
2024-04-09T03:20:25.864Z,17.87
2024-04-09T03:22:53.617Z,20.23
2024-04-09T03:25:23.262Z,18.13
2024-04-09T03:27:50.274Z,18.40
2024-04-09T03:30:20.133Z,13.57
2024-04-09T03:32:47.293Z,16.50
2024-04-09T03:35:17.107Z,15.53
2024-04-09T03:37:49.891Z,16.37
2024-04-09T03:40:19.614Z,18.63
2024-04-09T03:42:49.643Z,15.50
2024-04-09T03:45:17.338Z,16.13
2024-04-09T03:47:47.090Z,18.83
2024-04-09T03:50:14.342Z,18.43
2024-04-09T03:52:44.025Z,17.83
2024-04-09T03:55:13.837Z,19.27
2024-04-09T03:57:43.810Z,19.20
2024-04-09T04:00:13.398Z,15.00
2024-04-09T04:02:43.625Z,15.77
2024-04-09T04:05:11.658Z,19.63
2024-04-09T04:07:41.484Z,17.27
2024-04-09T04:10:11.893Z,17.00
2024-04-09T04:12:44.887Z,20.77
2024-04-09T04:15:12.630Z,17.60
2024-04-09T04:17:42.420Z,13.33
2024-04-09T04:20:10.788Z,17.00
2024-04-09T04:22:40.490Z,20.07
2024-04-09T04:25:07.750Z,17.77
2024-04-09T04:27:37.480Z,20.27
2024-04-09T04:30:08.625Z,19.57
2024-04-09T04:32:38.374Z,19.30
2024-04-09T04:35:06.032Z,25.77
2024-04-09T04:37:35.640Z,27.23
2024-04-09T04:40:02.740Z,21.80
2024-04-09T04:42:32.686Z,17.87
2024-04-09T04:44:59.824Z,18.10
2024-04-09T04:47:32.360Z,21.23
2024-04-09T04:49:59.462Z,23.43
2024-04-09T04:52:29.128Z,16.63
2024-04-09T04:54:57.911Z,14.20
2024-04-09T04:57:29.028Z,15.70
2024-04-09T04:59:57.794Z,20.47
2024-04-09T05:02:29.292Z,14.17
2024-04-09T05:04:59.156Z,13.77
2024-04-09T05:07:28.900Z,20.37
2024-04-09T05:09:56.066Z,14.73
2024-04-09T05:12:25.859Z,14.33
2024-04-09T05:14:53.037Z,17.60
2024-04-09T05:17:22.968Z,11.13
2024-04-09T05:19:52.218Z,14.13
2024-04-09T05:22:25.841Z,9.80
2024-04-09T05:24:52.917Z,11.10
2024-04-09T05:27:22.589Z,8.57
2024-04-09T05:29:49.687Z,10.00
2024-04-09T05:32:19.452Z,11.80
2024-04-09T05:34:46.532Z,9.63
2024-04-09T05:37:16.946Z,12.40
2024-04-09T05:39:47.894Z,10.97
2024-04-09T05:42:17.755Z,8.50
2024-04-09T05:44:44.799Z,12.43
2024-04-09T05:47:14.777Z,10.30
2024-04-09T05:49:41.978Z,11.00
2024-04-09T05:52:11.641Z,9.47
2024-04-09T05:54:41.647Z,9.70
2024-04-09T05:57:14.027Z,15.90
2024-04-09T05:59:41.140Z,10.70
2024-04-09T06:02:10.812Z,11.10
2024-04-09T06:04:38.579Z,20.43
2024-04-09T06:07:08.552Z,9.90
2024-04-09T06:09:35.874Z,8.13
2024-04-09T06:12:06.191Z,8.23
2024-04-09T06:14:35.931Z,10.93
2024-04-09T06:17:05.700Z,10.03
2024-04-09T06:19:33.041Z,8.50
2024-04-09T06:22:02.881Z,8.40
2024-04-09T06:24:31.072Z,9.57
2024-04-09T06:27:00.793Z,11.00
2024-04-09T06:29:28.191Z,9.90
2024-04-09T06:32:00.581Z,8.30
2024-04-09T06:34:28.623Z,12.43
2024-04-09T06:36:58.409Z,10.23
2024-04-09T06:39:26.330Z,9.47
2024-04-09T06:41:57.059Z,9.80
2024-04-09T06:44:24.527Z,8.63
2024-04-09T06:46:54.351Z,10.43
2024-04-09T06:49:24.563Z,12.43
2024-04-09T06:51:54.446Z,11.40
2024-04-09T06:54:22.290Z,10.77
2024-04-09T06:56:52.127Z,11.57
2024-04-09T06:59:19.355Z,10.13
2024-04-09T07:01:49.478Z,9.20
2024-04-09T07:04:16.757Z,11.43
2024-04-09T07:06:51.036Z,8.30
2024-04-09T07:09:18.732Z,17.13
2024-04-09T07:11:49.706Z,10.57
2024-04-09T07:14:16.809Z,10.67
2024-04-09T07:16:46.947Z,7.60
2024-04-09T07:19:14.034Z,7.70
2024-04-09T07:21:43.810Z,8.37
2024-04-09T07:24:16.121Z,8.80
2024-04-09T07:26:43.313Z,10.40
2024-04-09T07:29:14.550Z,11.70
2024-04-09T07:31:41.982Z,7.83
2024-04-09T07:34:11.756Z,8.93
2024-04-09T07:36:39.034Z,10.00
2024-04-09T07:39:09.463Z,9.37
2024-04-09T07:41:39.246Z,12.73
2024-04-09T07:44:09.366Z,12.70
2024-04-09T07:46:36.415Z,8.47
2024-04-09T07:49:06.196Z,8.70
2024-04-09T07:51:33.706Z,9.97
2024-04-09T07:54:03.661Z,10.20
2024-04-09T07:56:30.989Z,7.40
2024-04-09T07:59:03.847Z,8.57
2024-04-09T08:01:31.792Z,7.90
2024-04-09T08:04:01.603Z,5.70
2024-04-09T08:06:29.797Z,7.20
2024-04-09T08:08:59.813Z,9.17
2024-04-09T08:11:27.069Z,7.57
2024-04-09T08:13:56.843Z,11.27
2024-04-09T08:16:26.622Z,5.80
2024-04-09T08:18:56.555Z,6.67
2024-04-09T08:21:23.838Z,8.43
2024-04-09T08:23:53.650Z,5.67
2024-04-09T08:26:22.245Z,7.30
2024-04-09T08:28:52.204Z,5.90
2024-04-09T08:31:33.210Z,6.33
2024-04-09T08:34:05.203Z,5.60
2024-04-09T08:36:32.525Z,5.60
2024-04-09T08:39:02.272Z,6.20
2024-04-09T08:41:30.272Z,6.10
2024-04-09T08:44:01.667Z,6.20
2024-04-09T08:46:34.026Z,6.13
2024-04-09T08:49:04.214Z,6.40
2024-04-09T08:51:33.084Z,6.20
2024-04-09T08:54:03.208Z,8.47
2024-04-09T08:56:30.536Z,7.93
2024-04-09T08:59:05.547Z,6.23
2024-04-09T09:01:35.418Z,6.73
2024-04-09T09:04:05.508Z,5.70
2024-04-09T09:06:45.027Z,18.50
2024-04-09T09:09:25.075Z,7.10
2024-04-09T09:11:53.859Z,6.40
2024-04-09T09:14:23.699Z,8.40
2024-04-09T09:16:59.912Z,6.07
2024-04-09T09:19:32.434Z,6.57
2024-04-09T09:21:59.636Z,6.30
2024-04-09T09:24:29.390Z,5.60
2024-04-09T09:27:00.519Z,7.00
2024-04-09T09:29:30.543Z,6.30
2024-04-09T09:32:03.198Z,6.00
2024-04-09T09:34:43.860Z,6.73
2024-04-09T09:37:12.187Z,6.50
2024-04-09T09:39:43.600Z,7.77
2024-04-09T09:42:12.332Z,5.53
2024-04-09T09:44:43.327Z,6.13
2024-04-09T09:47:13.415Z,5.97
2024-04-09T09:49:43.191Z,6.10
2024-04-09T09:52:10.742Z,7.10
2024-04-09T09:54:40.763Z,6.70
2024-04-09T09:57:15.094Z,9.33
2024-04-09T09:59:49.968Z,10.50
2024-04-09T10:02:20.801Z,6.93
2024-04-09T10:04:52.104Z,6.53
2024-04-09T10:07:20.786Z,5.60
2024-04-09T10:09:55.851Z,7.73
2024-04-09T10:12:24.570Z,5.67
2024-04-09T10:15:01.033Z,6.73
2024-04-09T10:17:49.859Z,7.73
2024-04-09T10:20:22.679Z,5.50
2024-04-09T10:22:52.584Z,5.80
2024-04-09T10:25:23.687Z,6.20
2024-04-09T10:28:01.344Z,5.67
2024-04-09T10:30:32.137Z,6.20
2024-04-09T10:33:03.504Z,6.10
2024-04-09T10:35:33.765Z,6.67
2024-04-09T10:38:07.252Z,5.80
2024-04-09T10:40:36.181Z,5.80
2024-04-09T10:43:08.892Z,5.67
2024-04-09T10:45:47.929Z,5.50
2024-04-09T10:48:28.682Z,5.47
2024-04-09T10:50:56.437Z,6.00
2024-04-09T10:53:26.096Z,7.90
2024-04-09T10:56:01.641Z,5.50
2024-04-09T10:58:31.330Z,7.53
2024-04-09T11:00:58.961Z,6.27
2024-04-09T11:03:31.936Z,5.80
2024-04-09T11:05:59.893Z,5.50
2024-04-09T11:08:31.338Z,10.90
2024-04-09T11:11:01.037Z,8.43
2024-04-09T11:13:32.508Z,6.20
2024-04-09T11:16:01.151Z,5.97
2024-04-09T11:18:34.096Z,5.90
2024-04-09T11:21:02.638Z,7.37
2024-04-09T11:23:35.254Z,6.00
2024-04-09T11:26:03.218Z,6.73
2024-04-09T11:28:33.074Z,5.70
2024-04-09T11:31:01.346Z,6.67
2024-04-09T11:33:34.768Z,7.50
2024-04-09T11:36:07.731Z,6.07
2024-04-09T11:38:43.581Z,9.50
2024-04-09T11:41:10.654Z,6.60
2024-04-09T11:43:40.636Z,5.70
2024-04-09T11:46:07.735Z,5.80
2024-04-09T11:48:40.090Z,20.53
2024-04-09T11:51:07.230Z,6.77
2024-04-09T11:53:41.866Z,6.20
2024-04-09T11:56:08.982Z,5.57
2024-04-09T11:58:38.720Z,5.50
2024-04-09T12:01:06.127Z,6.97
2024-04-09T12:03:36.776Z,6.83
2024-04-09T12:06:07.956Z,7.67
2024-04-09T12:08:37.714Z,6.13
2024-04-09T12:11:04.924Z,6.63
2024-04-09T12:13:37.288Z,6.10
2024-04-09T12:16:04.942Z,6.30
2024-04-09T12:18:35.335Z,6.87
2024-04-09T12:21:03.363Z,6.10
2024-04-09T12:23:35.664Z,8.00
2024-04-09T12:26:02.726Z,6.53
2024-04-09T12:28:32.439Z,5.93
2024-04-09T12:30:59.659Z,11.33
2024-04-09T12:33:30.488Z,5.70
2024-04-09T12:35:57.837Z,6.70
2024-04-09T12:38:27.490Z,6.43
2024-04-09T12:40:57.224Z,6.90
2024-04-09T12:43:26.960Z,6.63
2024-04-09T12:45:54.525Z,6.20
2024-04-09T12:48:25.654Z,10.73
2024-04-09T12:50:53.084Z,5.60
2024-04-09T12:53:22.729Z,5.60
2024-04-09T12:55:49.810Z,6.23
2024-04-09T12:58:23.675Z,6.13
2024-04-09T13:01:05.344Z,5.97
2024-04-09T13:03:39.693Z,5.90
2024-04-09T13:06:08.323Z,6.10
2024-04-09T13:08:38.230Z,6.10
2024-04-09T13:11:05.830Z,5.60
2024-04-09T13:13:39.068Z,5.50
2024-04-09T13:16:49.571Z,5.60
2024-04-09T13:18:59.135Z,5.60
2024-04-09T13:21:26.337Z,6.47
2024-04-09T13:23:55.989Z,5.27
2024-04-09T13:26:23.578Z,5.30
2024-04-09T13:28:55.929Z,5.30
2024-04-09T13:31:22.963Z,5.27
2024-04-09T13:33:52.998Z,5.50
2024-04-09T13:36:20.149Z,6.47
2024-04-09T13:38:49.935Z,5.80
2024-04-09T13:41:17.175Z,6.23
2024-04-09T13:43:47.377Z,5.87
2024-04-09T13:46:19.137Z,5.50
2024-04-09T13:48:50.438Z,6.30
2024-04-09T13:51:17.571Z,5.50
2024-04-09T13:53:47.312Z,5.50
2024-04-09T13:56:14.491Z,7.50
2024-04-09T13:58:44.166Z,5.60
2024-04-09T14:01:11.347Z,6.03
2024-04-09T14:03:43.795Z,5.60
2024-04-09T14:06:11.610Z,6.17
2024-04-09T14:08:41.669Z,5.40
2024-04-09T14:11:09.127Z,6.33
2024-04-09T14:13:39.108Z,7.50
2024-04-09T14:16:06.662Z,5.60
2024-04-09T14:18:40.185Z,5.93
2024-04-09T14:21:10.106Z,5.80
2024-04-09T14:23:39.768Z,5.33
2024-04-09T14:26:10.394Z,5.60
2024-04-09T14:28:41.130Z,6.10
2024-04-09T14:31:08.443Z,6.90
2024-04-09T14:33:38.209Z,5.77
2024-04-09T14:36:06.038Z,5.50
2024-04-09T14:38:38.345Z,5.73
2024-04-09T14:41:05.444Z,5.80
2024-04-09T14:43:35.144Z,7.30
2024-04-09T14:46:02.223Z,6.30
2024-04-09T14:48:33.168Z,6.00
2024-04-09T14:51:00.367Z,5.80
2024-04-09T14:53:30.032Z,5.67
2024-04-09T14:56:03.164Z,5.90
2024-04-09T14:58:32.986Z,7.60
2024-04-09T15:01:00.527Z,7.20
2024-04-09T15:03:31.065Z,5.33
2024-04-09T15:05:58.791Z,6.83
2024-04-09T15:08:31.377Z,7.23
2024-04-09T15:11:03.642Z,5.97
2024-04-09T15:13:34.439Z,5.90
2024-04-09T15:16:01.982Z,6.43
2024-04-09T15:18:32.559Z,7.80
2024-04-09T15:20:59.648Z,5.50
2024-04-09T15:23:34.120Z,6.30
2024-04-09T15:26:05.743Z,5.63
2024-04-09T15:28:37.896Z,5.80
2024-04-09T15:31:05.837Z,6.00
2024-04-09T15:33:35.734Z,5.57
2024-04-09T15:36:04.159Z,6.33
2024-04-09T15:38:33.938Z,5.90
2024-04-09T15:41:04.187Z,6.47
2024-04-09T15:43:34.207Z,8.80
2024-04-09T15:46:01.795Z,6.20
2024-04-09T15:48:32.051Z,5.40
2024-04-09T15:50:59.395Z,5.60
2024-04-09T15:53:29.618Z,6.37
2024-04-09T15:55:56.744Z,5.80
2024-04-09T15:58:31.920Z,6.30
2024-04-09T16:00:59.097Z,5.47
2024-04-09T16:03:31.340Z,5.97
2024-04-09T16:05:59.399Z,7.97
2024-04-09T16:08:32.987Z,5.80
2024-04-09T16:11:01.810Z,7.10
2024-04-09T16:13:34.870Z,6.03
2024-04-09T16:16:06.888Z,7.30
2024-04-09T16:18:36.975Z,5.80
2024-04-09T16:21:05.473Z,6.30
2024-04-09T16:23:37.514Z,6.47
2024-04-09T16:26:09.178Z,6.10
2024-04-09T16:28:43.222Z,6.07
2024-04-09T16:31:10.367Z,8.03
2024-04-09T16:33:40.299Z,6.50
2024-04-09T16:36:09.334Z,5.43
2024-04-09T16:38:39.937Z,6.07
2024-04-09T16:41:07.222Z,5.80
2024-04-09T16:43:38.611Z,5.90
2024-04-09T16:46:09.457Z,6.70
2024-04-09T16:48:39.347Z,5.60
2024-04-09T16:51:06.639Z,7.90
2024-04-09T16:53:36.433Z,5.60
2024-04-09T16:56:04.553Z,5.40
2024-04-09T16:58:34.388Z,6.27
2024-04-09T17:01:02.812Z,6.60
2024-04-09T17:03:36.174Z,6.00
2024-04-09T17:06:04.707Z,6.97
2024-04-09T17:08:36.489Z,8.90
2024-04-09T17:11:07.101Z,6.10
2024-04-09T17:13:37.776Z,7.97
2024-04-09T17:16:07.652Z,5.70
2024-04-09T17:18:40.118Z,5.60
2024-04-09T17:21:10.812Z,6.00
2024-04-09T17:23:40.881Z,7.80
2024-04-09T17:26:08.515Z,6.30
2024-04-09T17:28:38.301Z,7.90
2024-04-09T17:31:07.271Z,6.90
2024-04-09T17:33:39.816Z,8.90
2024-04-09T17:36:07.438Z,6.77
2024-04-09T17:38:37.446Z,7.10
2024-04-09T17:41:04.870Z,6.80
2024-04-09T17:43:34.760Z,5.50
2024-04-09T17:46:01.803Z,6.20
2024-04-09T17:48:31.687Z,7.70
2024-04-09T17:51:01.470Z,6.43
2024-04-09T17:53:32.439Z,6.43
2024-04-09T17:55:59.693Z,6.93
2024-04-09T17:58:30.364Z,6.03
2024-04-09T18:00:57.523Z,8.60
2024-04-09T18:03:27.237Z,6.87
2024-04-09T18:06:07.276Z,9.70
2024-04-09T18:08:36.901Z,7.43
2024-04-09T18:11:05.650Z,6.50
2024-04-09T18:13:36.589Z,6.13
2024-04-09T18:16:06.305Z,7.83
2024-04-09T18:18:36.275Z,9.33
2024-04-09T18:21:06.209Z,7.10
2024-04-09T18:23:37.292Z,6.00
2024-04-09T18:26:06.710Z,6.90
2024-04-09T18:28:36.516Z,7.30
2024-04-09T18:31:05.488Z,6.80
2024-04-09T18:33:36.415Z,6.47
2024-04-09T18:36:07.483Z,6.20
2024-04-09T18:38:37.184Z,6.97
2024-04-09T18:41:05.478Z,6.57
2024-04-09T18:43:35.672Z,7.30
2024-04-09T18:46:03.335Z,6.47
2024-04-09T18:48:33.486Z,5.93
2024-04-09T18:51:00.710Z,6.63
2024-04-09T18:53:34.339Z,6.77
2024-04-09T18:56:01.824Z,7.00
2024-04-09T18:58:31.856Z,7.30
2024-04-09T19:00:58.970Z,5.67
2024-04-09T19:03:28.995Z,6.97
2024-04-09T19:05:56.268Z,6.97
2024-04-09T19:08:26.331Z,7.70
2024-04-09T19:10:56.249Z,6.17
2024-04-09T19:13:25.962Z,5.73
2024-04-09T19:15:58.347Z,7.40
2024-04-09T19:18:28.170Z,7.43
2024-04-09T19:21:00.244Z,7.63
2024-04-09T19:23:30.166Z,8.73
2024-04-09T19:26:00.021Z,7.33
2024-04-09T19:28:29.892Z,6.70
2024-04-09T19:30:58.227Z,6.67
2024-04-09T19:33:28.498Z,5.70
2024-04-09T19:35:55.601Z,5.70
2024-04-09T19:38:25.524Z,6.33
2024-04-09T19:40:52.885Z,5.90
2024-04-09T19:43:34.251Z,7.33
2024-04-09T19:46:09.673Z,9.37
2024-04-09T19:48:39.589Z,6.13
2024-04-09T19:51:07.310Z,6.23
2024-04-09T19:53:49.061Z,5.70
2024-04-09T19:56:20.540Z,7.47
2024-04-09T19:58:52.952Z,6.53
2024-04-09T20:01:20.570Z,6.60
2024-04-09T20:03:50.777Z,7.33
2024-04-09T20:06:17.944Z,6.30
2024-04-09T20:08:47.634Z,8.13
2024-04-09T20:11:15.072Z,7.10
2024-04-09T20:13:44.929Z,6.53
2024-04-09T20:16:14.659Z,6.10
2024-04-09T20:18:44.442Z,6.40
2024-04-09T20:21:11.600Z,6.73
2024-04-09T20:23:41.240Z,7.33
2024-04-09T20:26:08.484Z,7.30
2024-04-09T20:28:38.169Z,6.97
2024-04-09T20:31:10.330Z,7.40
2024-04-09T20:33:42.986Z,6.13
2024-04-09T20:36:10.873Z,7.57
2024-04-09T20:38:40.784Z,7.00
2024-04-09T20:41:08.708Z,7.13
2024-04-09T20:43:38.626Z,6.40
2024-04-09T20:46:05.814Z,7.40
2024-04-09T20:48:36.145Z,6.60
2024-04-09T20:51:07.001Z,6.87
2024-04-09T20:53:36.907Z,5.93
2024-04-09T20:56:05.842Z,6.83
2024-04-09T20:58:35.998Z,7.50
2024-04-09T21:01:04.687Z,6.10
2024-04-09T21:03:34.749Z,8.60
2024-04-09T21:06:02.012Z,6.30
2024-04-09T21:08:34.357Z,6.37
2024-04-09T21:11:01.706Z,7.23
2024-04-09T21:13:31.506Z,6.80
2024-04-09T21:15:58.686Z,7.20
2024-04-09T21:18:29.796Z,6.63
2024-04-09T21:20:57.188Z,8.07
2024-04-09T21:23:27.154Z,6.60
2024-04-09T21:25:57.083Z,6.30
2024-04-09T21:28:26.912Z,6.80
2024-04-09T21:30:54.002Z,7.20
2024-04-09T21:33:23.796Z,7.23
2024-04-09T21:35:54.798Z,6.67
2024-04-09T21:38:24.492Z,6.43
2024-04-09T21:40:51.639Z,6.80
2024-04-09T21:43:24.553Z,8.43
2024-04-09T21:45:52.058Z,8.30
2024-04-09T21:48:21.985Z,6.03
2024-04-09T21:50:49.178Z,6.50
2024-04-09T21:53:18.809Z,7.93
2024-04-09T21:55:45.845Z,7.07
2024-04-09T21:58:15.508Z,6.00
2024-04-09T22:00:52.937Z,6.27
2024-04-09T22:03:23.256Z,5.80
2024-04-09T22:05:50.496Z,9.47
2024-04-09T22:08:20.727Z,9.20
2024-04-09T22:10:48.214Z,9.07
2024-04-09T22:13:17.942Z,8.40
2024-04-09T22:15:47.616Z,7.40
2024-04-09T22:18:17.363Z,7.63
2024-04-09T22:20:44.541Z,6.37
2024-04-09T22:23:15.717Z,6.87
2024-04-09T22:25:43.302Z,7.40
2024-04-09T22:28:13.088Z,6.50
2024-04-09T22:30:40.230Z,8.40
2024-04-09T22:33:13.204Z,9.23
2024-04-09T22:35:40.316Z,7.57
2024-04-09T22:38:10.312Z,6.60
2024-04-09T22:40:38.327Z,6.80
2024-04-09T22:43:11.095Z,7.30
2024-04-09T22:45:38.169Z,11.83
2024-04-09T22:48:08.844Z,7.60
2024-04-09T22:50:39.256Z,6.40
2024-04-09T22:53:08.994Z,10.00
2024-04-09T22:55:36.103Z,8.50
2024-04-09T22:58:06.176Z,7.97
2024-04-09T23:00:33.308Z,7.30
2024-04-09T23:03:05.295Z,7.20
2024-04-09T23:05:32.883Z,9.80
2024-04-09T23:08:05.336Z,9.40
2024-04-09T23:10:32.452Z,7.30
2024-04-09T23:13:03.605Z,11.40
2024-04-09T23:15:30.663Z,7.20
2024-04-09T23:18:00.399Z,7.00
2024-04-09T23:20:27.713Z,7.43
2024-04-09T23:22:57.488Z,8.03
2024-04-09T23:25:27.229Z,8.47
2024-04-09T23:27:57.504Z,6.53
2024-04-09T23:30:24.531Z,6.70
2024-04-09T23:32:54.271Z,8.47
2024-04-09T23:35:21.800Z,7.50
2024-04-09T23:37:51.554Z,10.47
2024-04-09T23:40:18.628Z,8.20
2024-04-09T23:42:50.901Z,7.67
2024-04-09T23:45:18.078Z,5.90
2024-04-09T23:47:47.975Z,6.37
2024-04-09T23:50:15.193Z,8.17
2024-04-09T23:52:45.014Z,10.83
2024-04-09T23:55:12.142Z,9.10
2024-04-09T23:57:41.756Z,7.60
